Time;durP1;ratioP1;P1;durP2;ratioP2;P2;SDS_P1;SDS_P2;PMS_P1;PMS_P2;Temp;Humidity;BMP_temperature;BMP_pressure;BME280_temperature;BME280_humidity;BME280_pressure;Samples;Min_cycle;Max_cycle;Signal;HPM_P1;HPM_P2
2022/06/10 00:01:58;;;;;;;8.93;6.53;;;21.50;99.90;;;;;;5098318;28;20283;-92
2022/06/10 00:04:24;;;;;;;6.00;4.77;;;21.50;99.90;;;;;;5080505;28;20930;-90
2022/06/10 00:06:49;;;;;;;5.33;4.50;;;21.50;99.90;;;;;;5081149;28;20200;-92
2022/06/10 00:09:15;;;;;;;6.30;4.17;;;21.50;99.90;;;;;;5098918;28;20204;-92
2022/06/10 00:11:41;;;;;;;6.23;5.00;;;21.40;99.90;;;;;;5080193;28;20287;-93
2022/06/10 00:14:06;;;;;;;8.43;6.00;;;21.40;99.90;;;;;;5080985;28;20459;-89
2022/06/10 00:16:33;;;;;;;7.63;5.90;;;21.40;99.90;;;;;;5098791;28;20196;-93
2022/06/10 00:18:59;;;;;;;5.83;5.03;;;21.40;99.90;;;;;;5098895;28;20247;-91
2022/06/10 00:21:25;;;;;;;6.10;5.50;;;21.40;99.90;;;;;;5081102;28;20437;-93
2022/06/10 00:23:51;;;;;;;7.30;4.73;;;21.40;99.90;;;;;;5080617;28;20472;-92
2022/06/10 00:26:17;;;;;;;6.17;4.77;;;21.40;99.90;;;;;;5098905;28;20503;-93
2022/06/10 00:28:45;;;;;;;6.73;4.90;;;21.30;99.90;;;;;;5081493;28;20176;-93
2022/06/10 00:31:12;;;;;;;5.43;4.90;;;21.30;99.90;;;;;;5081092;28;20425;-94
2022/06/10 00:33:40;;;;;;;5.87;5.00;;;21.20;99.90;;;;;;5098999;28;20974;-92
2022/06/10 00:36:08;;;;;;;8.53;5.43;;;21.30;99.90;;;;;;5098580;28;20448;-93
2022/06/10 00:38:34;;;;;;;6.40;4.70;;;21.20;99.90;;;;;;5078836;28;20452;-93
2022/06/10 00:41:00;;;;;;;6.97;4.70;;;21.20;99.90;;;;;;5079042;28;20428;-92
2022/06/10 00:43:29;;;;;;;6.50;5.50;;;21.20;99.90;;;;;;5098009;28;20204;-93
2022/06/10 00:46:23;;;;;;;8.73;5.40;;;21.10;99.90;;;;;;5079015;28;20508;-92
2022/06/10 00:49:07;;;;;;;7.97;6.00;;;21.10;99.90;;;;;;5097507;28;20416;-92
2022/06/10 00:51:53;;;;;;;6.90;5.00;;;21.10;99.90;;;;;;5079402;28;20484;-93
2022/06/10 00:54:25;;;;;;;7.80;5.23;;;21.10;99.90;;;;;;5098531;28;20409;-92
2022/06/10 00:56:57;;;;;;;5.30;4.70;;;21.00;99.90;;;;;;5097014;28;20456;-92
2022/06/10 00:59:27;;;;;;;8.50;5.80;;;21.00;99.90;;;;;;5096794;28;20393;-92
2022/06/10 01:01:58;;;;;;;6.80;5.60;;;21.00;99.90;;;;;;5080112;28;20471;-92
2022/06/10 01:04:25;;;;;;;6.50;4.77;;;21.00;99.90;;;;;;5078679;28;20823;-93
2022/06/10 01:06:51;;;;;;;8.23;6.17;;;21.00;99.90;;;;;;5079476;28;20440;-91
2022/06/10 01:09:17;;;;;;;9.07;5.07;;;21.00;99.90;;;;;;5079473;28;20482;-93
2022/06/10 01:12:09;;;;;;;6.67;5.30;;;21.00;99.90;;;;;;5079001;28;20204;-92
2022/06/10 01:15:13;;;;;;;7.60;5.77;;;21.00;99.90;;;;;;5096248;28;20410;-93
2022/06/10 01:18:01;;;;;;;7.87;5.63;;;21.00;99.90;;;;;;5014207;28;20487;-93
2022/06/10 01:21:00;;;;;;;6.70;5.00;;;21.00;99.90;;;;;;4997943;28;20417;-92
2022/06/10 01:24:03;;;;;;;6.40;5.00;;;21.00;99.90;;;;;;5065838;28;20544;-93
2022/06/10 01:29:59;;;;;;;7.53;5.20;;;21.00;99.90;;;;;;5096664;28;20415;-93
2022/06/10 01:32:34;;;;;;;8.90;6.30;;;21.00;99.90;;;;;;5080540;28;20476;-92
2022/06/10 01:35:23;;;;;;;8.43;6.57;;;20.90;99.90;;;;;;5100441;28;20401;-92
2022/06/10 01:38:13;;;;;;;7.13;5.53;;;20.90;99.90;;;;;;5081798;28;20453;-91
2022/06/10 01:41:19;;;;;;;7.43;6.03;;;20.90;99.90;;;;;;5078382;28;20428;-92
2022/06/10 01:43:57;;;;;;;11.50;5.63;;;20.90;99.90;;;;;;5057373;28;20989;-93
2022/06/10 01:46:35;;;;;;;7.13;4.80;;;20.90;99.90;;;;;;5078924;28;20903;-93
2022/06/10 01:49:10;;;;;;;7.53;5.40;;;20.90;99.90;;;;;;5078708;28;20486;-92
2022/06/10 01:51:41;;;;;;;8.40;5.70;;;20.90;99.90;;;;;;5061593;28;20460;-93
2022/06/10 01:54:16;;;;;;;6.43;5.60;;;20.90;99.90;;;;;;5060815;28;20434;-92
2022/06/10 01:56:47;;;;;;;6.63;4.70;;;20.90;99.90;;;;;;5078936;28;20444;-92
2022/06/10 01:59:15;;;;;;;6.37;5.27;;;20.90;99.90;;;;;;5060839;28;20777;-92
2022/06/10 02:01:48;;;;;;;5.90;5.30;;;20.90;99.90;;;;;;5078536;28;20552;-93
2022/06/10 02:04:19;;;;;;;7.87;5.40;;;20.90;99.90;;;;;;5061670;28;20417;-93
2022/06/10 02:06:48;;;;;;;5.23;4.53;;;20.80;99.90;;;;;;5078863;28;20503;-93
2022/06/10 02:09:19;;;;;;;6.77;5.27;;;20.90;99.90;;;;;;5078672;28;20412;-93
2022/06/10 02:11:49;;;;;;;6.10;5.03;;;20.90;99.90;;;;;;5079977;28;20441;-92
2022/06/10 02:14:29;;;;;;;6.90;4.93;;;20.90;99.90;;;;;;5062925;28;20475;-92
2022/06/10 02:16:57;;;;;;;9.13;5.70;;;20.90;99.90;;;;;;5081118;28;20511;-91
2022/06/10 02:19:30;;;;;;;7.30;6.20;;;20.80;99.90;;;;;;5063418;28;20432;-92
2022/06/10 02:21:59;;;;;;;14.10;5.60;;;20.90;99.90;;;;;;5079840;28;20460;-92
2022/06/10 02:24:58;;;;;;;9.83;6.40;;;20.80;99.90;;;;;;5062706;28;20431;-92
2022/06/10 02:27:31;;;;;;;9.63;6.10;;;20.80;99.90;;;;;;5062234;28;20946;-92
2022/06/10 02:30:01;;;;;;;9.10;6.20;;;20.80;99.90;;;;;;5079442;28;20413;-92
2022/06/10 02:32:28;;;;;;;7.53;6.00;;;20.80;99.90;;;;;;5061955;28;20478;-92
2022/06/10 02:34:55;;;;;;;7.57;6.07;;;20.70;99.90;;;;;;5061131;28;20930;-93
2022/06/10 02:37:32;;;;;;;10.93;6.97;;;20.70;99.90;;;;;;5061018;28;20820;-93
2022/06/10 02:40:01;;;;;;;11.50;6.37;;;20.70;99.90;;;;;;5062388;28;20461;-93
2022/06/10 02:42:35;;;;;;;8.27;6.67;;;20.70;99.90;;;;;;5077010;28;20479;-92
2022/06/10 02:45:36;;;;;;;9.80;7.17;;;20.70;99.90;;;;;;5101149;28;20401;-92
2022/06/10 02:48:20;;;;;;;9.17;7.07;;;20.70;99.90;;;;;;5110868;28;20479;-92
2022/06/10 02:50:46;;;;;;;8.40;5.80;;;20.70;99.90;;;;;;5096269;28;20437;-92
2022/06/10 02:53:13;;;;;;;10.63;6.10;;;20.70;99.90;;;;;;5080448;28;20451;-92
2022/06/10 02:55:39;;;;;;;9.67;6.00;;;20.70;99.90;;;;;;5097806;28;20183;-93
2022/06/10 03:01:13;;;;;;;8.70;6.77;;;20.70;99.90;;;;;;5098362;28;20172;-92
2022/06/10 03:04:14;;;;;;;10.77;6.70;;;20.60;99.90;;;;;;5080189;28;20563;-93
2022/06/10 03:06:48;;;;;;;10.37;6.60;;;20.60;99.90;;;;;;5079570;28;20452;-93
2022/06/10 03:09:20;;;;;;;10.53;6.73;;;20.60;99.90;;;;;;5079784;28;20562;-92
2022/06/10 03:12:01;;;;;;;8.17;6.40;;;20.60;99.90;;;;;;5080168;28;20495;-92
2022/06/10 03:14:58;;;;;;;7.23;6.10;;;20.60;99.90;;;;;;5098811;28;20405;-92
2022/06/10 03:18:04;;;;;;;10.63;5.90;;;20.60;99.90;;;;;;5065533;28;20472;-92
2022/06/10 03:20:38;;;;;;;7.47;6.30;;;20.60;99.90;;;;;;5098444;28;20451;-93
2022/06/10 03:23:30;;;;;;;6.57;5.90;;;20.60;99.90;;;;;;5080400;28;20483;-93
2022/06/10 03:26:13;;;;;;;7.27;6.07;;;20.60;99.90;;;;;;5081095;28;20469;-92
2022/06/10 03:28:42;;;;;;;9.40;6.50;;;20.60;99.90;;;;;;5082341;28;20459;-93
2022/06/10 03:31:19;;;;;;;10.23;6.67;;;20.60;99.90;;;;;;5082396;28;20416;-93
2022/06/10 03:34:02;;;;;;;9.27;6.13;;;20.60;99.90;;;;;;5099352;28;20385;-92
2022/06/10 03:36:31;;;;;;;9.63;6.40;;;20.60;99.90;;;;;;5080316;28;20938;-93
2022/06/10 03:38:58;;;;;;;8.57;6.67;;;20.60;99.90;;;;;;5081986;28;20419;-92
2022/06/10 03:41:34;;;;;;;8.97;6.10;;;20.60;99.90;;;;;;5082018;28;20436;-94
2022/06/10 03:44:06;;;;;;;8.07;6.07;;;20.60;99.90;;;;;;5099659;28;20863;-92
2022/06/10 03:46:33;;;;;;;11.10;6.60;;;20.60;99.90;;;;;;5099590;28;20436;-92
2022/06/10 03:49:10;;;;;;;8.80;6.70;;;20.70;99.90;;;;;;5102788;28;20405;-93
2022/06/10 03:51:38;;;;;;;9.57;6.77;;;20.70;99.90;;;;;;5097449;28;20526;-92
2022/06/10 03:54:04;;;;;;;7.67;5.80;;;20.70;99.90;;;;;;5079409;28;20978;-92
2022/06/10 03:56:31;;;;;;;9.00;6.40;;;20.70;99.90;;;;;;5079108;28;20460;-92
2022/06/10 03:58:57;;;;;;;7.00;5.80;;;20.70;99.90;;;;;;5096468;28;20171;-92
2022/06/10 04:01:23;;;;;;;8.27;6.07;;;20.70;99.90;;;;;;5078394;28;20526;-92
2022/06/10 04:03:49;;;;;;;12.50;5.90;;;20.70;99.90;;;;;;5078544;28;20471;-92
2022/06/10 04:06:17;;;;;;;7.30;6.30;;;20.70;99.90;;;;;;5079264;28;20199;-92
2022/06/10 04:08:42;;;;;;;7.10;6.00;;;20.70;99.90;;;;;;5078558;28;20409;-93
2022/06/10 04:11:08;;;;;;;9.50;6.90;;;20.70;99.90;;;;;;5078003;28;20425;-93
2022/06/10 04:13:34;;;;;;;9.03;6.90;;;20.70;99.90;;;;;;5078541;28;20221;-91
2022/06/10 04:15:59;;;;;;;9.37;6.87;;;20.70;99.90;;;;;;5097253;28;20215;-92
2022/06/10 04:18:25;;;;;;;8.30;5.80;;;20.80;99.90;;;;;;5079011;28;20596;-93
2022/06/10 04:20:51;;;;;;;13.17;7.70;;;20.80;99.90;;;;;;5079113;28;20267;-92
2022/06/10 04:23:17;;;;;;;13.90;6.27;;;20.80;99.90;;;;;;5078320;28;20224;-92
2022/06/10 04:25:44;;;;;;;12.17;5.83;;;20.80;99.90;;;;;;5096179;28;20480;-92
2022/06/10 04:28:10;;;;;;;9.47;5.80;;;20.80;99.90;;;;;;5078964;28;20208;-92
2022/06/10 04:30:39;;;;;;;6.87;5.53;;;20.80;99.90;;;;;;5080968;28;20504;-91
2022/06/10 04:33:05;;;;;;;8.00;5.60;;;20.80;99.90;;;;;;5099331;28;20441;-92
2022/06/10 04:35:34;;;;;;;11.20;6.50;;;20.80;99.90;;;;;;5098957;28;20393;-92
2022/06/10 04:38:00;;;;;;;11.13;6.80;;;20.80;99.90;;;;;;5099940;28;20436;-92
2022/06/10 04:40:29;;;;;;;8.13;5.87;;;20.70;99.90;;;;;;5087209;28;20416;-92
2022/06/10 04:42:55;;;;;;;9.30;6.17;;;20.70;99.90;;;;;;5100170;28;20215;-92
2022/06/10 04:45:24;;;;;;;7.00;5.40;;;20.70;99.90;;;;;;5095689;28;20401;-92
2022/06/10 04:47:54;;;;;;;14.50;6.60;;;20.70;99.90;;;;;;5096046;28;20448;-92
2022/06/10 04:50:22;;;;;;;7.67;5.63;;;20.70;99.90;;;;;;5095859;28;20409;-92
2022/06/10 04:52:48;;;;;;;7.07;6.17;;;20.70;99.90;;;;;;5078505;28;20807;-92
2022/06/10 04:55:14;;;;;;;8.90;6.73;;;20.70;99.90;;;;;;5078854;28;20472;-91
2022/06/10 04:57:40;;;;;;;7.40;5.77;;;20.70;99.90;;;;;;5078920;28;20480;-93
2022/06/10 05:00:10;;;;;;;10.43;6.63;;;20.70;99.90;;;;;;5096483;28;20480;-93
2022/06/10 05:02:36;;;;;;;7.20;5.53;;;20.70;99.90;;;;;;5096470;28;20477;-93
2022/06/10 05:05:03;;;;;;;7.83;5.90;;;20.70;99.90;;;;;;5078464;28;20833;-92
2022/06/10 05:07:28;;;;;;;11.20;7.63;;;20.70;99.90;;;;;;5078480;28;20296;-92
2022/06/10 05:09:54;;;;;;;8.10;6.13;;;20.70;99.90;;;;;;5097132;28;20493;-92
2022/06/10 05:12:20;;;;;;;6.97;4.70;;;20.80;99.90;;;;;;5078441;28;20204;-93
2022/06/10 05:14:46;;;;;;;8.10;6.10;;;20.80;99.90;;;;;;5077545;28;20259;-92
2022/06/10 05:17:11;;;;;;;6.20;5.60;;;20.80;99.90;;;;;;5076881;28;20231;-92
2022/06/10 05:19:37;;;;;;;9.13;6.90;;;20.80;99.90;;;;;;5094498;28;20256;-92
2022/06/10 05:22:04;;;;;;;9.40;6.83;;;20.90;99.90;;;;;;5078553;28;20250;-93
2022/06/10 05:24:29;;;;;;;7.50;5.73;;;20.90;99.90;;;;;;5078478;28;20177;-92
2022/06/10 05:26:55;;;;;;;9.97;5.80;;;20.90;99.90;;;;;;5096830;28;20477;-94
2022/06/10 05:29:21;;;;;;;11.33;6.20;;;21.00;99.90;;;;;;5079053;28;20168;-91
2022/06/10 05:31:46;;;;;;;9.80;6.63;;;21.00;99.90;;;;;;5078719;28;20204;-92
2022/06/10 05:36:56;;;;;;;7.83;5.70;;;21.10;99.90;;;;;;5098368;28;20223;-92
2022/06/10 05:39:22;;;;;;;8.80;5.63;;;21.10;99.90;;;;;;5105508;28;20405;-92
2022/06/10 05:42:06;;;;;;;9.70;6.37;;;21.10;99.90;;;;;;5087250;28;20460;-93
2022/06/10 05:44:34;;;;;;;10.20;6.50;;;21.10;99.90;;;;;;5077995;28;20196;-93
2022/06/10 05:47:03;;;;;;;7.40;5.63;;;21.20;99.90;;;;;;5077991;28;20451;-92
2022/06/10 05:49:30;;;;;;;8.20;6.20;;;21.20;99.90;;;;;;5075724;28;20467;-92
2022/06/10 05:51:56;;;;;;;6.63;5.93;;;21.20;99.90;;;;;;5077390;28;20492;-92
2022/06/10 05:54:22;;;;;;;10.43;6.00;;;21.30;99.90;;;;;;5076221;28;20413;-92
2022/06/10 05:56:52;;;;;;;10.53;6.77;;;21.30;99.90;;;;;;5074166;28;20468;-93
2022/06/10 05:59:22;;;;;;;9.03;6.83;;;21.40;99.90;;;;;;5073790;28;20451;-93
2022/06/10 06:01:48;;;;;;;8.97;6.37;;;21.40;99.90;;;;;;5076495;28;20507;-92
2022/06/10 06:04:14;;;;;;;9.47;6.93;;;21.40;99.90;;;;;;5076961;28;20890;-91
2022/06/10 06:06:41;;;;;;;7.00;5.73;;;21.50;99.90;;;;;;5103587;28;20489;-92
2022/06/10 06:09:07;;;;;;;8.87;6.83;;;21.50;99.90;;;;;;5091169;28;20171;-91
2022/06/10 06:11:33;;;;;;;7.37;6.30;;;21.60;99.90;;;;;;5074401;28;20564;-92
2022/06/10 06:13:58;;;;;;;7.80;6.40;;;21.70;99.90;;;;;;5074251;28;20499;-91
2022/06/10 06:16:34;;;;;;;9.53;6.60;;;21.70;99.90;;;;;;5073175;28;20180;-92
2022/06/10 06:18:59;;;;;;;9.33;6.70;;;21.70;99.90;;;;;;5073175;28;20180;-92
2022/06/10 06:21:33;;;;;;;8.63;6.33;;;21.80;99.90;;;;;;5075368;28;20425;-92
2022/06/10 06:23:59;;;;;;;8.40;6.13;;;21.90;99.90;;;;;;5092568;28;20208;-91
2022/06/10 06:26:25;;;;;;;8.00;7.20;;;22.00;99.90;;;;;;5084727;28;20491;-91
2022/06/10 06:28:50;;;;;;;13.33;7.70;;;22.00;99.90;;;;;;5091703;28;20416;-91
2022/06/10 06:31:16;;;;;;;12.70;7.60;;;22.10;99.90;;;;;;5090680;28;20184;-92
2022/06/10 06:33:42;;;;;;;8.97;7.10;;;22.10;99.90;;;;;;5096239;28;20176;-92
2022/06/10 06:36:15;;;;;;;11.93;7.53;;;22.20;99.90;;;;;;5097639;28;20165;-94
2022/06/10 06:38:41;;;;;;;10.87;6.80;;;22.20;99.90;;;;;;5076766;28;20173;-93
2022/06/10 06:41:06;;;;;;;8.60;6.87;;;22.30;99.90;;;;;;5097847;28;20408;-92
2022/06/10 06:43:32;;;;;;;8.27;6.50;;;22.30;99.90;;;;;;5082162;28;20216;-92
2022/06/10 06:45:58;;;;;;;10.30;7.00;;;22.40;99.90;;;;;;5095545;28;20180;-92
2022/06/10 06:48:24;;;;;;;8.77;6.60;;;22.40;99.90;;;;;;5094923;28;20201;-93
2022/06/10 06:50:50;;;;;;;9.00;6.40;;;22.50;99.90;;;;;;5072652;28;20184;-93
2022/06/10 06:53:17;;;;;;;6.70;5.33;;;22.60;99.90;;;;;;5083838;28;20283;-92
2022/06/10 06:55:44;;;;;;;8.17;6.20;;;22.60;99.90;;;;;;5080973;28;20431;-92
2022/06/10 06:58:14;;;;;;;10.07;6.43;;;22.70;99.90;;;;;;5082627;28;20462;-93
2022/06/10 07:00:40;;;;;;;9.70;6.90;;;22.70;99.90;;;;;;5076971;28;20421;-92
2022/06/10 07:03:06;;;;;;;7.60;6.50;;;22.80;99.90;;;;;;5097108;28;20472;-92
2022/06/10 07:05:35;;;;;;;9.93;6.93;;;22.80;99.90;;;;;;5096791;28;20192;-94
2022/06/10 07:08:01;;;;;;;9.03;5.77;;;22.80;99.90;;;;;;5096195;28;20488;-94
2022/06/10 07:10:28;;;;;;;9.40;6.27;;;22.80;99.90;;;;;;5099679;28;20404;-92
2022/06/10 07:12:54;;;;;;;7.53;5.70;;;22.80;99.90;;;;;;5078135;28;20504;-94
2022/06/10 07:15:21;;;;;;;10.60;5.50;;;22.90;99.90;;;;;;5075107;28;20493;-92
2022/06/10 07:17:47;;;;;;;7.13;6.10;;;22.90;99.90;;;;;;5072962;28;20229;-95
2022/06/10 07:20:24;;;;;;;6.53;5.70;;;22.90;99.90;;;;;;5076050;28;20791;-95
2022/06/10 07:22:50;;;;;;;6.73;5.20;;;23.00;99.90;;;;;;5056842;28;20951;-94
2022/06/10 07:25:16;;;;;;;6.50;4.80;;;23.00;99.90;;;;;;5088503;28;20452;-94
2022/06/10 07:27:43;;;;;;;7.53;6.17;;;23.10;99.90;;;;;;5076978;28;20476;-94
2022/06/10 07:30:12;;;;;;;6.30;5.10;;;23.10;99.90;;;;;;5074030;28;20427;-94
2022/06/10 07:32:39;;;;;;;5.87;4.53;;;23.20;99.90;;;;;;5094798;28;20489;-93
2022/06/10 07:35:05;;;;;;;7.27;5.10;;;23.20;99.90;;;;;;5076942;28;20509;-94
2022/06/10 07:37:31;;;;;;;5.93;5.20;;;23.30;99.90;;;;;;5076352;28;20497;-91
2022/06/10 07:39:57;;;;;;;6.67;5.17;;;23.40;99.90;;;;;;5076448;28;20422;-89
2022/06/10 07:42:23;;;;;;;7.33;5.73;;;23.40;99.90;;;;;;5078730;28;20221;-93
2022/06/10 07:44:49;;;;;;;7.80;5.03;;;23.50;99.90;;;;;;5073892;28;20189;-92
2022/06/10 07:47:16;;;;;;;5.90;5.30;;;23.50;99.90;;;;;;5093503;28;20474;-94
2022/06/10 07:49:42;;;;;;;10.23;5.80;;;23.60;99.90;;;;;;5086220;28;20451;-96
2022/06/10 07:52:10;;;;;;;5.47;4.27;;;23.60;99.90;;;;;;5083614;28;20455;-94
2022/06/10 07:54:36;;;;;;;7.00;5.93;;;23.70;99.90;;;;;;5081888;28;20446;-92
2022/06/10 07:57:04;;;;;;;6.30;5.30;;;23.70;99.90;;;;;;5080815;28;20470;-94
2022/06/10 07:59:31;;;;;;;6.00;5.43;;;23.70;99.90;;;;;;5092503;28;20174;-94
2022/06/10 08:01:58;;;;;;;6.47;4.60;;;23.80;99.90;;;;;;5078554;28;20468;-92
2022/06/10 08:04:24;;;;;;;7.77;5.30;;;23.80;99.90;;;;;;5074259;28;20561;-91
2022/06/10 08:06:50;;;;;;;6.67;5.40;;;23.80;99.90;;;;;;5103928;28;20493;-92
2022/06/10 08:09:20;;;;;;;7.07;4.47;;;24.00;99.90;;;;;;5073771;28;20212;-92
2022/06/10 08:11:47;;;;;;;10.03;5.73;;;24.00;99.90;;;;;;5074541;28;20883;-93
2022/06/10 08:14:14;;;;;;;6.70;5.00;;;24.00;99.90;;;;;;5081746;28;20497;-95
2022/06/10 08:16:40;;;;;;;5.47;4.97;;;24.00;99.90;;;;;;5090613;28;20464;-94
2022/06/10 08:19:06;;;;;;;5.23;4.73;;;24.00;99.90;;;;;;5077576;28;20411;-94
2022/06/10 08:24:17;;;;;;;5.37;4.80;;;24.10;99.90;;;;;;5096439;28;21044;-95
2022/06/10 08:26:44;;;;;;;5.67;4.70;;;24.10;99.90;;;;;;5072024;28;20537;-96
2022/06/10 08:29:10;;;;;;;4.20;3.80;;;24.30;99.90;;;;;;5072517;28;20436;-92
2022/06/10 08:31:36;;;;;;;7.33;5.37;;;24.40;99.90;;;;;;5075306;28;20455;-95
2022/06/10 08:34:06;;;;;;;5.93;4.93;;;24.40;99.90;;;;;;5075218;28;21020;-94
2022/06/10 08:36:33;;;;;;;6.00;4.43;;;24.40;99.90;;;;;;5087042;28;20483;-92
2022/06/10 08:39:00;;;;;;;7.73;4.73;;;24.40;99.90;;;;;;5068286;28;20439;-94
2022/06/10 08:42:07;;;;;;;5.20;4.70;;;24.50;99.90;;;;;;5069106;28;20431;-89
2022/06/10 08:44:36;;;;;;;5.10;4.67;;;24.50;99.90;;;;;;5082082;28;20455;-93
2022/06/10 08:47:08;;;;;;;5.47;4.80;;;24.60;99.90;;;;;;5072650;28;20459;-92
2022/06/10 08:50:04;;;;;;;5.90;5.40;;;24.70;99.90;;;;;;5066988;28;20428;-93
2022/06/10 08:52:58;;;;;;;5.53;4.90;;;24.70;99.90;;;;;;5056303;28;20452;-94
2022/06/10 08:56:03;;;;;;;5.00;4.50;;;24.80;99.90;;;;;;5064526;28;20438;-94
2022/06/10 08:58:59;;;;;;;4.27;3.70;;;24.90;99.90;;;;;;5063179;28;20530;-93
2022/06/10 09:01:26;;;;;;;4.80;3.63;;;24.90;99.90;;;;;;5072741;28;20487;-93
2022/06/10 09:03:59;;;;;;;7.13;4.40;;;25.00;99.90;;;;;;5071104;28;20536;-93
2022/06/10 09:07:00;;;;;;;4.53;4.03;;;25.00;99.90;;;;;;5082053;28;20551;-93
2022/06/10 09:09:29;;;;;;;4.20;3.50;;;25.00;99.90;;;;;;5007033;28;20448;-94
2022/06/10 09:12:14;;;;;;;4.07;3.67;;;25.10;99.90;;;;;;5055149;28;20469;-95
2022/06/10 09:14:42;;;;;;;5.53;3.70;;;25.20;99.90;;;;;;5059712;28;20527;-95
2022/06/10 09:17:22;;;;;;;4.47;3.63;;;25.20;99.90;;;;;;5071379;28;20466;-95
2022/06/10 09:19:58;;;;;;;4.27;3.87;;;25.30;99.90;;;;;;5085042;28;20523;-93
2022/06/10 09:22:32;;;;;;;3.80;3.37;;;25.30;99.90;;;;;;5077150;28;20997;-94
2022/06/10 09:25:10;;;;;;;4.07;3.53;;;25.50;99.90;;;;;;5094826;28;20450;-93
2022/06/10 09:27:41;;;;;;;4.60;4.10;;;25.60;99.90;;;;;;5051492;28;20485;-93
2022/06/10 09:30:11;;;;;;;3.27;3.07;;;25.80;99.90;;;;;;5070600;28;20520;-93
2022/06/10 09:32:55;;;;;;;4.40;4.00;;;25.90;99.90;;;;;;5056151;28;20456;-93
2022/06/10 09:35:40;;;;;;;4.37;3.97;;;26.00;99.90;;;;;;5054025;28;20516;-93
2022/06/10 09:38:14;;;;;;;4.60;3.60;;;26.10;99.90;;;;;;5053883;28;20476;-92
2022/06/10 09:41:21;;;;;;;4.10;3.70;;;26.00;99.90;;;;;;5054595;28;20761;-93
2022/06/10 09:44:02;;;;;;;3.87;3.33;;;26.10;99.90;;;;;;5037235;28;21176;-92
2022/06/10 09:46:39;;;;;;;3.30;3.00;;;26.10;99.90;;;;;;5055436;28;20803;-93
2022/06/10 09:49:29;;;;;;;3.67;3.37;;;26.10;99.90;;;;;;5054562;28;20438;-95
2022/06/10 09:52:14;;;;;;;3.30;3.00;;;26.20;99.90;;;;;;5057703;28;20469;-94
2022/06/10 09:55:09;;;;;;;3.43;3.13;;;26.20;99.90;;;;;;5069204;28;20512;-92
2022/06/10 09:57:49;;;;;;;5.60;3.60;;;26.30;99.90;;;;;;5061879;28;20449;-92
2022/06/10 10:00:27;;;;;;;2.77;2.57;;;26.40;99.90;;;;;;5057503;28;20406;-92
2022/06/10 10:03:16;;;;;;;3.43;3.10;;;26.40;99.90;;;;;;5072518;28;20488;-92
2022/06/10 10:06:19;;;;;;;3.53;3.23;;;26.50;99.90;;;;;;5053185;28;20437;-94
2022/06/10 10:08:48;;;;;;;3.63;3.33;;;26.50;99.90;;;;;;5076234;28;20429;-95
2022/06/10 10:11:47;;;;;;;3.07;2.77;;;26.60;99.90;;;;;;5060681;28;20500;-92
2022/06/10 10:14:34;;;;;;;2.60;2.40;;;26.70;99.90;;;;;;5022934;28;20430;-92
2022/06/10 10:17:09;;;;;;;3.37;3.17;;;26.90;99.90;;;;;;5060610;28;20529;-92
2022/06/10 10:20:03;;;;;;;4.83;3.73;;;27.00;99.90;;;;;;5055471;28;20429;-94
2022/06/10 10:22:56;;;;;;;3.13;2.93;;;27.00;99.90;;;;;;5058917;28;20513;-94
2022/06/10 10:25:25;;;;;;;3.17;2.87;;;27.10;99.90;;;;;;5079811;28;20442;-95
2022/06/10 10:27:53;;;;;;;5.07;3.10;;;27.20;99.90;;;;;;5059946;28;20465;-92
2022/06/10 10:30:21;;;;;;;3.40;2.93;;;27.10;99.90;;;;;;5046478;28;20518;-93
2022/06/10 10:32:57;;;;;;;3.30;3.00;;;27.30;99.90;;;;;;5057585;28;20548;-95
2022/06/10 10:35:40;;;;;;;3.80;3.40;;;27.30;99.90;;;;;;5054295;28;20915;-93
2022/06/10 10:38:11;;;;;;;3.40;3.10;;;27.50;99.90;;;;;;5063933;28;20818;-93
2022/06/10 10:40:44;;;;;;;4.50;3.80;;;27.50;99.90;;;;;;5075945;28;20418;-93
2022/06/10 10:43:16;;;;;;;5.70;3.30;;;27.50;99.90;;;;;;5053898;28;20568;-92
2022/06/10 10:45:58;;;;;;;4.10;2.93;;;27.50;99.90;;;;;;5070741;28;20434;-93
2022/06/10 10:48:45;;;;;;;4.73;3.60;;;27.60;99.90;;;;;;5056064;28;20459;-94
2022/06/10 10:51:11;;;;;;;4.47;2.90;;;27.50;99.90;;;;;;5068523;28;20440;-94
2022/06/10 10:53:38;;;;;;;3.53;3.23;;;27.60;99.90;;;;;;5053940;28;20435;-94
2022/06/10 10:56:06;;;;;;;3.70;3.40;;;27.60;99.90;;;;;;5053354;28;20187;-92
2022/06/10 10:58:55;;;;;;;3.37;3.07;;;27.70;99.90;;;;;;5077083;28;20480;-91
2022/06/10 11:01:47;;;;;;;4.60;2.83;;;27.70;99.90;;;;;;5056571;28;20438;-95
2022/06/10 11:04:24;;;;;;;4.03;3.30;;;27.90;99.90;;;;;;5058396;28;20466;-95
2022/06/10 11:07:10;;;;;;;4.53;4.13;;;27.90;99.90;;;;;;5057620;28;20457;-92
2022/06/10 11:09:52;;;;;;;3.73;3.30;;;28.00;99.90;;;;;;5064554;28;20446;-92
2022/06/10 11:12:21;;;;;;;3.47;3.17;;;28.10;99.90;;;;;;5050374;28;20463;-95
2022/06/10 11:14:56;;;;;;;3.67;2.93;;;28.30;99.90;;;;;;5071792;28;20431;-94
2022/06/10 11:17:24;;;;;;;3.50;3.20;;;28.30;99.90;;;;;;5056113;28;20553;-93
2022/06/10 11:19:54;;;;;;;3.97;3.17;;;28.40;99.90;;;;;;5045996;28;20430;-93
2022/06/10 11:22:34;;;;;;;3.40;3.10;;;28.40;99.90;;;;;;5076097;28;20455;-92
2022/06/10 11:25:06;;;;;;;3.80;2.97;;;28.50;99.90;;;;;;5075835;28;20441;-92
2022/06/10 11:27:33;;;;;;;2.83;2.63;;;28.50;99.90;;;;;;5052538;28;20978;-93
2022/06/10 11:30:11;;;;;;;3.87;3.50;;;28.50;99.90;;;;;;5058479;28;20441;-93
2022/06/10 11:32:54;;;;;;;3.43;3.13;;;28.60;99.90;;;;;;5072149;28;20771;-95
2022/06/10 11:35:26;;;;;;;2.60;2.40;;;28.70;99.90;;;;;;5068998;28;20545;-94
2022/06/10 11:38:04;;;;;;;3.17;2.83;;;28.80;99.90;;;;;;5046950;28;20468;-94
2022/06/10 11:43:51;;;;;;;4.13;2.90;;;29.00;99.90;;;;;;5092965;23;20502;-68
2022/06/10 11:46:33;;;;;;;4.17;2.90;;;29.00;99.90;;;;;;5081126;28;21261;-69
2022/06/10 11:49:14;;;;;;;3.53;3.23;;;29.10;99.10;;;;;;5060733;28;20477;-68
2022/06/10 11:51:54;;;;;;;3.47;2.80;;;29.20;99.00;;;;;;5057012;28;20832;-69
2022/06/10 11:54:36;;;;;;;3.77;2.67;;;29.30;98.70;;;;;;5079296;28;20461;-68
2022/06/10 12:00:20;;;;;;;3.20;2.90;;;29.40;98.40;;;;;;5080065;28;20467;-69
2022/06/10 12:02:53;;;;;;;3.27;2.93;;;29.50;99.10;;;;;;5063830;28;20577;-68
2022/06/10 12:05:25;;;;;;;3.00;2.70;;;29.60;98.40;;;;;;5061299;28;20464;-68
2022/06/10 12:08:18;;;;;;;2.93;2.73;;;29.60;98.60;;;;;;5068056;28;20443;-69
2022/06/10 12:11:04;;;;;;;3.10;2.90;;;29.70;99.20;;;;;;5066617;28;20444;-69
2022/06/10 12:13:38;;;;;;;3.47;3.17;;;29.80;98.90;;;;;;5082322;28;20428;-70
2022/06/10 12:16:05;;;;;;;3.30;2.97;;;29.80;98.30;;;;;;5065762;28;20471;-70
2022/06/10 12:18:41;;;;;;;3.10;2.90;;;29.80;97.30;;;;;;5065478;28;20497;-70
2022/06/10 12:21:14;;;;;;;4.13;3.00;;;29.90;96.80;;;;;;5066262;28;20430;-69
2022/06/10 12:23:42;;;;;;;4.90;3.30;;;29.90;97.40;;;;;;5068092;28;20490;-69
2022/06/10 12:26:31;;;;;;;3.10;2.90;;;29.90;97.70;;;;;;5064672;28;20465;-69
2022/06/10 12:29:19;;;;;;;3.67;3.30;;;29.90;98.10;;;;;;5063599;28;20464;-69
2022/06/10 12:31:51;;;;;;;3.60;3.30;;;29.90;97.60;;;;;;5063857;28;20445;-69
2022/06/10 12:34:31;;;;;;;4.23;3.87;;;29.90;97.10;;;;;;5076570;28;20486;-69
2022/06/10 12:37:20;;;;;;;3.60;3.30;;;29.80;96.40;;;;;;5062459;28;20447;-69
2022/06/10 12:39:54;;;;;;;3.53;3.00;;;29.70;97.50;;;;;;5063777;28;20452;-69
2022/06/10 12:42:26;;;;;;;3.00;2.77;;;29.60;98.70;;;;;;5082391;28;20476;-69
2022/06/10 12:45:01;;;;;;;3.60;3.30;;;29.40;99.00;;;;;;5067735;28;20498;-69
2022/06/10 12:47:33;;;;;;;5.03;3.47;;;29.30;98.40;;;;;;5066409;28;20526;-69
2022/06/10 12:50:16;;;;;;;7.57;4.37;;;29.20;99.00;;;;;;5064320;28;20940;-70
2022/06/10 12:53:10;;;;;;;5.00;3.80;;;29.10;98.70;;;;;;5076290;28;20448;-71
2022/06/10 12:55:44;;;;;;;2.83;2.57;;;28.90;98.90;;;;;;5062454;28;21099;-70
2022/06/10 12:58:42;;;;;;;4.17;2.40;;;28.70;97.90;;;;;;5062303;28;20450;-69
2022/06/10 13:01:18;;;;;;;3.17;2.57;;;28.50;97.40;;;;;;5064052;28;20435;-69
2022/06/10 13:03:51;;;;;;;3.23;2.73;;;28.30;99.30;;;;;;5070195;28;20820;-69
2022/06/10 13:06:26;;;;;;;2.80;2.33;;;28.20;98.70;;;;;;5071212;28;20498;-69
2022/06/10 13:09:11;;;;;;;3.70;2.67;;;28.00;98.70;;;;;;5071276;28;20457;-71
2022/06/10 13:11:52;;;;;;;1.93;1.83;;;27.80;97.30;;;;;;5072698;28;20429;-69
2022/06/10 13:14:24;;;;;;;3.50;2.90;;;27.80;97.00;;;;;;5068450;28;20538;-70
2022/06/10 13:17:20;;;;;;;2.13;1.93;;;27.70;97.10;;;;;;5090722;28;20422;-68
2022/06/10 13:20:00;;;;;;;2.53;2.03;;;27.50;96.90;;;;;;5065889;28;20483;-68
2022/06/10 13:22:36;;;;;;;2.73;1.60;;;27.50;97.00;;;;;;5053936;28;20446;-69
2022/06/10 13:25:05;;;;;;;2.97;2.17;;;27.50;96.90;;;;;;5054649;28;20776;-68
2022/06/10 13:27:41;;;;;;;2.40;1.83;;;27.40;97.00;;;;;;5063399;28;20964;-71
2022/06/10 13:30:25;;;;;;;4.70;2.00;;;27.30;97.50;;;;;;5071349;28;20437;-69
2022/06/10 13:33:06;;;;;;;2.70;2.50;;;27.30;97.70;;;;;;5053387;28;20464;-70
2022/06/10 13:35:36;;;;;;;2.77;2.40;;;27.20;97.80;;;;;;5051854;28;20468;-69
2022/06/10 13:38:29;;;;;;;2.60;2.20;;;27.20;98.20;;;;;;5088451;28;20471;-69